createdAt,value
2018-10-19T00:01:53.554Z,44.15
2018-10-19T00:04:22.398Z,44.20
2018-10-19T00:06:50.904Z,44.90
2018-10-19T00:09:19.388Z,44.93
2018-10-19T00:11:47.897Z,45.45
2018-10-19T00:14:16.755Z,42.27
2018-10-19T00:16:45.281Z,45.38
2018-10-19T00:19:13.789Z,43.90
2018-10-19T00:21:42.331Z,41.63
2018-10-19T00:24:10.836Z,42.78
2018-10-19T00:26:39.390Z,41.80
2018-10-19T00:29:08.933Z,39.05
2018-10-19T00:31:37.573Z,39.75
2018-10-19T00:34:07.124Z,40.38
2018-10-19T00:36:35.726Z,37.42
2018-10-19T00:39:06.374Z,38.38
2018-10-19T00:41:35.034Z,40.85
2018-10-19T00:44:03.558Z,38.78
2018-10-19T00:46:33.212Z,39.13
2018-10-19T00:49:02.036Z,34.58
2018-10-19T00:52:01.921Z,38.35
2018-10-19T00:54:31.130Z,37.40
2018-10-19T00:57:00.343Z,37.75
2018-10-19T00:59:29.333Z,38.20
2018-10-19T01:01:58.260Z,37.10
2018-10-19T01:04:26.762Z,39.53
2018-10-19T01:06:55.346Z,38.15
2018-10-19T01:09:24.179Z,37.28
2018-10-19T01:11:52.684Z,39.95
2018-10-19T01:14:21.655Z,39.48
2018-10-19T01:16:50.821Z,39.03
2018-10-19T01:19:19.712Z,38.35
2018-10-19T01:21:48.533Z,36.48
2018-10-19T01:24:17.114Z,39.18
2018-10-19T01:26:46.304Z,37.00
2018-10-19T01:29:14.953Z,35.98
2018-10-19T01:31:43.564Z,34.60
2018-10-19T01:34:12.099Z,36.90
2018-10-19T01:36:41.939Z,37.10
2018-10-19T01:39:11.720Z,38.53
2018-10-19T01:41:41.411Z,39.05
2018-10-19T01:44:10.997Z,37.88
2018-10-19T01:46:44.902Z,33.50
2018-10-19T01:49:14.096Z,35.03
2018-10-19T01:51:44.553Z,35.15
2018-10-19T01:54:13.443Z,33.20
2018-10-19T01:56:42.273Z,35.17
2018-10-19T01:59:11.196Z,34.90
2018-10-19T02:01:39.809Z,31.77
2018-10-19T02:04:08.641Z,28.65
2018-10-19T02:06:37.148Z,31.20
2018-10-19T02:09:06.691Z,32.48
2018-10-19T02:11:35.824Z,28.30
2018-10-19T02:14:04.765Z,30.17
2018-10-19T02:16:33.302Z,26.90
2018-10-19T02:19:01.810Z,26.42
2018-10-19T02:21:30.312Z,25.90
2018-10-19T02:23:59.128Z,22.73
2018-10-19T02:26:27.976Z,25.30
2018-10-19T02:28:56.577Z,21.40
2018-10-19T02:31:25.192Z,19.30
2018-10-19T02:33:54.040Z,21.73
2018-10-19T02:36:23.214Z,20.15
2018-10-19T02:38:52.427Z,20.68
2018-10-19T02:41:21.417Z,20.30
2018-10-19T02:43:49.935Z,17.30
2018-10-19T02:46:18.772Z,17.35
2018-10-19T02:48:47.608Z,19.07
2018-10-19T02:51:16.146Z,17.98
2018-10-19T02:53:45.166Z,18.17
2018-10-19T02:56:13.997Z,17.90
2018-10-19T02:58:42.505Z,16.17
2018-10-19T03:01:11.341Z,17.75
2018-10-19T03:03:39.849Z,16.82
2018-10-19T03:06:08.394Z,18.48
2018-10-19T03:08:36.872Z,17.77
2018-10-19T03:11:06.016Z,15.10
2018-10-19T03:13:34.700Z,14.13
2018-10-19T03:16:03.566Z,15.88
2018-10-19T03:18:32.395Z,14.93
2018-10-19T03:21:01.283Z,13.90
2018-10-19T03:23:29.940Z,14.43
2018-10-19T03:25:58.454Z,14.98
2018-10-19T03:28:27.304Z,13.78
2018-10-19T03:30:56.344Z,12.85
2018-10-19T03:33:25.670Z,12.78
2018-10-19T03:35:54.185Z,12.20
2018-10-19T03:38:22.728Z,14.30
2018-10-19T03:40:51.242Z,15.38
2018-10-19T03:43:19.743Z,13.22
2018-10-19T03:45:48.607Z,14.75
2018-10-19T03:48:17.120Z,14.65
2018-10-19T03:50:45.992Z,13.40
2018-10-19T03:53:14.874Z,15.60
2018-10-19T03:55:43.877Z,15.70
2018-10-19T03:58:12.620Z,14.00
2018-10-19T04:00:41.713Z,14.28
2018-10-19T04:03:10.635Z,14.98
2018-10-19T04:05:39.314Z,12.33
2018-10-19T04:08:08.722Z,11.68
2018-10-19T04:10:37.250Z,13.40
2018-10-19T04:13:05.801Z,12.63
2018-10-19T04:15:35.570Z,13.80
2018-10-19T04:18:04.460Z,13.13
2018-10-19T04:20:33.196Z,12.55
2018-10-19T04:23:05.511Z,12.43
2018-10-19T04:25:35.445Z,12.70
2018-10-19T04:28:04.585Z,13.22
2018-10-19T04:30:33.612Z,13.58
2018-10-19T04:33:03.052Z,14.68
2018-10-19T04:35:32.449Z,15.15
2018-10-19T04:38:02.438Z,17.40
2018-10-19T04:40:30.942Z,17.57
2018-10-19T04:42:59.812Z,18.92
2018-10-19T04:45:28.344Z,17.62
2018-10-19T04:47:56.850Z,20.37
2018-10-19T04:50:25.384Z,22.27
2018-10-19T04:52:53.939Z,28.38
2018-10-19T04:55:22.924Z,29.23
2018-10-19T04:57:51.761Z,29.75
2018-10-19T05:00:22.180Z,33.95
2018-10-19T05:02:51.534Z,31.75
2018-10-19T05:05:20.417Z,31.73
2018-10-19T05:07:49.401Z,34.25
2018-10-19T05:10:18.388Z,34.50
2018-10-19T05:12:47.303Z,35.38
2018-10-19T05:15:15.968Z,33.35
2018-10-19T05:17:44.825Z,35.15
2018-10-19T05:20:16.368Z,37.10
2018-10-19T05:22:46.139Z,35.75
2018-10-19T05:25:14.677Z,36.03
2018-10-19T05:27:43.777Z,38.85
2018-10-19T05:30:13.389Z,35.10
2018-10-19T05:32:43.742Z,32.35
2018-10-19T05:35:12.904Z,33.78
2018-10-19T05:37:42.443Z,37.67
2018-10-19T05:40:12.514Z,34.73
2018-10-19T05:42:41.131Z,37.05
2018-10-19T05:45:11.433Z,36.90
2018-10-19T05:47:40.717Z,36.95
2018-10-19T05:50:10.574Z,35.28
2018-10-19T05:52:39.688Z,37.67
2018-10-19T05:55:09.364Z,35.17
2018-10-19T05:57:38.124Z,36.88
2018-10-19T06:00:07.823Z,36.45
2018-10-19T06:02:37.089Z,34.40
2018-10-19T06:05:06.501Z,35.65
2018-10-19T06:07:36.082Z,37.28
2018-10-19T06:10:05.552Z,35.52
2018-10-19T06:12:34.078Z,36.42
2018-10-19T06:15:03.081Z,36.77
2018-10-19T06:17:31.607Z,35.75
2018-10-19T06:20:00.187Z,35.60
2018-10-19T06:22:28.836Z,32.98
2018-10-19T06:24:58.037Z,37.75
2018-10-19T06:27:26.880Z,38.40
2018-10-19T06:29:55.717Z,35.23
2018-10-19T06:32:24.549Z,34.33
2018-10-19T06:34:53.425Z,34.08
2018-10-19T06:37:22.142Z,35.40
2018-10-19T06:39:50.725Z,33.05
2018-10-19T06:42:20.328Z,34.18
2018-10-19T06:44:49.219Z,33.35
2018-10-19T06:47:18.190Z,36.38
2018-10-19T06:49:47.825Z,35.28
2018-10-19T06:52:16.332Z,37.63
2018-10-19T06:54:44.928Z,36.40
2018-10-19T06:57:14.114Z,39.00
2018-10-19T06:59:42.652Z,38.35
2018-10-19T07:02:11.284Z,36.68
2018-10-19T07:04:40.304Z,38.45
2018-10-19T07:07:09.476Z,37.50
2018-10-19T07:09:38.321Z,38.30
2018-10-19T07:12:07.414Z,36.30
2018-10-19T07:14:36.416Z,36.13
2018-10-19T07:17:05.009Z,37.10
2018-10-19T07:19:33.711Z,35.48
2018-10-19T07:22:02.216Z,35.70
2018-10-19T07:24:31.049Z,35.55
2018-10-19T07:26:59.573Z,36.80
2018-10-19T07:29:28.481Z,34.10
2018-10-19T07:31:57.923Z,33.00
2018-10-19T07:34:27.498Z,35.15
2018-10-19T07:36:56.342Z,36.80
2018-10-19T07:39:25.114Z,32.73
2018-10-19T07:41:53.780Z,34.73
2018-10-19T07:44:23.637Z,35.80
2018-10-19T07:46:52.506Z,33.15
2018-10-19T07:49:21.415Z,33.88
2018-10-19T07:51:49.948Z,33.45
2018-10-19T07:54:26.064Z,33.02
2018-10-19T07:56:54.812Z,29.55
2018-10-19T07:59:23.337Z,27.42
2018-10-19T08:01:52.674Z,27.35
2018-10-19T08:04:21.394Z,26.77
2018-10-19T08:06:50.343Z,27.27
2018-10-19T08:09:19.196Z,27.02
2018-10-19T08:11:49.649Z,24.90
2018-10-19T08:14:25.073Z,26.35
2018-10-19T08:16:53.618Z,26.75
2018-10-19T08:19:22.667Z,24.25
2018-10-19T08:21:52.206Z,25.35
2018-10-19T08:24:20.743Z,29.65
2018-10-19T08:26:49.755Z,26.55
2018-10-19T08:29:18.501Z,25.23
2018-10-19T08:31:47.026Z,24.63
2018-10-19T08:34:15.873Z,27.05
2018-10-19T08:36:44.533Z,27.40
2018-10-19T08:39:13.541Z,27.10
2018-10-19T08:41:42.131Z,30.12
2018-10-19T08:44:11.105Z,28.65
2018-10-19T08:46:41.320Z,28.85
2018-10-19T08:49:11.455Z,29.40
2018-10-19T08:51:41.864Z,28.32
2018-10-19T08:54:11.084Z,32.08
2018-10-19T08:56:40.246Z,30.50
2018-10-19T08:59:08.833Z,31.20
2018-10-19T09:01:37.480Z,29.37
2018-10-19T09:04:06.363Z,26.62
2018-10-19T09:06:35.721Z,27.32
2018-10-19T09:09:08.473Z,21.60
2018-10-19T09:11:37.628Z,19.15
2018-10-19T09:14:17.793Z,19.90
2018-10-19T09:16:48.747Z,19.60
2018-10-19T09:19:21.345Z,20.55
2018-10-19T09:21:50.860Z,17.73
2018-10-19T09:24:19.421Z,18.05
2018-10-19T09:26:49.135Z,16.27
2018-10-19T09:29:19.882Z,15.30
2018-10-19T09:31:49.560Z,13.00
2018-10-19T09:34:18.075Z,15.03
2018-10-19T09:36:46.697Z,12.23
2018-10-19T09:39:15.456Z,15.23
2018-10-19T09:41:44.161Z,13.72
2018-10-19T09:44:12.693Z,13.28
2018-10-19T09:46:41.852Z,13.35
2018-10-19T09:49:12.180Z,12.80
2018-10-19T09:51:41.677Z,13.95
2018-10-19T09:54:11.429Z,15.05
2018-10-19T09:56:40.328Z,15.60
2018-10-19T09:59:09.303Z,16.93
2018-10-19T10:01:39.096Z,15.30
2018-10-19T10:04:07.953Z,15.68
2018-10-19T10:06:37.114Z,15.65
2018-10-19T10:09:11.683Z,20.57
2018-10-19T10:11:40.864Z,17.05
2018-10-19T10:14:10.416Z,15.15
2018-10-19T10:16:55.417Z,15.68
2018-10-19T10:19:24.087Z,14.10
2018-10-19T10:21:53.688Z,15.50
2018-10-19T10:24:23.054Z,15.80
2018-10-19T10:26:51.606Z,19.23
2018-10-19T10:29:20.120Z,19.37
2018-10-19T10:31:49.014Z,17.35
2018-10-19T10:34:17.582Z,17.40
2018-10-19T10:36:46.608Z,17.25
2018-10-19T10:39:15.491Z,18.65
2018-10-19T10:41:44.187Z,16.97
2018-10-19T10:44:13.128Z,17.60
2018-10-19T10:46:41.679Z,18.30
2018-10-19T10:49:10.267Z,17.37
2018-10-19T10:51:38.941Z,16.82
2018-10-19T10:54:07.450Z,17.85
2018-10-19T10:56:36.707Z,17.02
2018-10-19T10:59:05.234Z,16.85
2018-10-19T11:01:33.717Z,17.90
2018-10-19T11:04:02.594Z,17.50
2018-10-19T11:06:32.279Z,18.40
2018-10-19T11:09:00.788Z,18.15
2018-10-19T11:11:29.336Z,17.42
2018-10-19T11:13:57.910Z,19.80
2018-10-19T11:16:26.436Z,18.42
2018-10-19T11:18:54.990Z,17.23
2018-10-19T11:21:42.650Z,18.80
2018-10-19T11:24:11.639Z,17.57
2018-10-19T11:26:40.333Z,18.48
2018-10-19T11:29:09.741Z,19.42
2018-10-19T11:31:40.325Z,18.10
2018-10-19T11:34:08.926Z,17.30
2018-10-19T11:36:42.605Z,19.57
2018-10-19T11:39:13.698Z,19.32
2018-10-19T11:41:42.532Z,18.95
2018-10-19T11:44:11.776Z,17.50
2018-10-19T11:46:45.127Z,17.45
2018-10-19T11:49:14.474Z,17.17
2018-10-19T11:52:04.106Z,17.25
2018-10-19T11:54:32.836Z,18.12
2018-10-19T11:57:01.755Z,17.62
2018-10-19T11:59:30.409Z,16.93
2018-10-19T12:02:02.573Z,17.80
2018-10-19T12:04:31.487Z,18.50
2018-10-19T12:07:00.932Z,18.32
2018-10-19T12:09:29.964Z,18.45
2018-10-19T12:11:58.790Z,16.82
2018-10-19T12:14:27.301Z,17.05
2018-10-19T12:16:56.343Z,18.37
2018-10-19T12:19:25.282Z,18.37
2018-10-19T12:21:54.480Z,17.40
2018-10-19T12:24:22.988Z,16.42
2018-10-19T12:26:51.828Z,18.67
2018-10-19T12:29:20.687Z,18.80
2018-10-19T12:31:49.575Z,17.73
2018-10-19T12:34:18.098Z,18.67
2018-10-19T12:36:46.958Z,19.20
2018-10-19T12:39:15.501Z,18.00
2018-10-19T12:41:44.278Z,17.37
2018-10-19T12:44:14.614Z,18.82
2018-10-19T12:46:54.520Z,16.62
2018-10-19T12:49:24.165Z,18.10
2018-10-19T12:52:01.153Z,18.45
2018-10-19T12:54:30.095Z,18.25
2018-10-19T12:56:59.137Z,18.00
2018-10-19T12:59:27.685Z,21.37
2018-10-19T13:01:57.717Z,23.02
2018-10-19T13:04:27.443Z,23.05
2018-10-19T13:06:56.766Z,24.12
2018-10-19T13:09:26.336Z,24.50
2018-10-19T13:11:54.868Z,23.22
2018-10-19T13:14:23.425Z,23.90
2018-10-19T13:16:52.018Z,23.25
2018-10-19T13:19:20.597Z,26.20
2018-10-19T13:21:50.433Z,31.10
2018-10-19T13:24:19.276Z,31.40
2018-10-19T13:33:46.353Z,27.65
2018-10-19T13:36:15.230Z,28.42
2018-10-19T13:38:43.991Z,27.62
2018-10-19T13:41:12.849Z,27.13
2018-10-19T13:43:42.404Z,28.50
2018-10-19T13:46:11.272Z,27.20
2018-10-19T13:48:39.828Z,26.50
2018-10-19T13:51:08.426Z,25.37
2018-10-19T13:53:37.813Z,25.45
2018-10-19T13:56:07.069Z,27.45
2018-10-19T13:58:36.481Z,28.52
2018-10-19T14:01:05.731Z,25.55
2018-10-19T14:03:34.889Z,26.60
2018-10-19T14:06:04.075Z,30.20
2018-10-19T14:08:32.922Z,24.95
2018-10-19T14:11:01.905Z,24.65
2018-10-19T14:13:32.256Z,26.25
2018-10-19T14:16:00.803Z,26.10
2018-10-19T14:18:29.377Z,26.52
2018-10-19T14:20:57.955Z,28.87
2018-10-19T14:23:27.189Z,31.27
2018-10-19T14:25:55.751Z,29.10
2018-10-19T14:28:24.352Z,28.27
2018-10-19T14:30:52.906Z,28.12
2018-10-19T14:33:22.465Z,27.98
2018-10-19T14:35:51.727Z,26.15
2018-10-19T14:38:21.215Z,23.50
2018-10-19T14:40:51.047Z,23.35
2018-10-19T14:43:21.051Z,24.67
2018-10-19T14:45:49.596Z,26.60
2018-10-19T14:48:18.386Z,25.27
2018-10-19T14:50:51.019Z,25.80
2018-10-19T14:53:19.582Z,25.82
2018-10-19T14:55:48.605Z,23.42
2018-10-19T14:58:17.183Z,25.25
2018-10-19T15:00:50.161Z,21.52
2018-10-19T15:03:19.082Z,24.30
2018-10-19T15:05:50.640Z,22.13
2018-10-19T15:08:19.395Z,25.45
2018-10-19T15:10:48.477Z,23.07
2018-10-19T15:13:17.069Z,24.05
2018-10-19T15:15:46.153Z,24.75
2018-10-19T15:18:15.286Z,22.62
2018-10-19T15:22:11.541Z,22.20
2018-10-19T15:24:40.101Z,21.10
2018-10-19T15:27:09.186Z,21.02
2018-10-19T15:29:38.009Z,21.82
2018-10-19T15:32:06.620Z,23.80
2018-10-19T15:34:35.205Z,22.20
2018-10-19T15:37:03.823Z,23.18
2018-10-19T15:39:32.705Z,23.52
2018-10-19T15:42:02.622Z,22.65
2018-10-19T15:44:32.224Z,21.48
2018-10-19T15:47:02.212Z,25.08
2018-10-19T15:49:31.105Z,22.80
2018-10-19T15:51:59.697Z,23.07
2018-10-19T15:54:28.243Z,22.58
2018-10-19T15:56:57.193Z,23.27
2018-10-19T15:59:25.801Z,24.02
2018-10-19T16:01:54.705Z,24.72
2018-10-19T16:04:23.634Z,22.60
2018-10-19T16:06:52.883Z,25.00
2018-10-19T16:09:21.852Z,25.27
2018-10-19T16:11:50.406Z,23.98
2018-10-19T16:14:19.268Z,24.30
2018-10-19T16:16:47.825Z,24.25
2018-10-19T16:19:16.786Z,23.80
2018-10-19T16:21:45.301Z,22.25
2018-10-19T16:24:14.271Z,25.32
2018-10-19T16:26:43.315Z,21.48
2018-10-19T16:29:14.184Z,24.77
2018-10-19T16:31:42.716Z,21.87
2018-10-19T16:34:11.313Z,23.62
2018-10-19T16:36:39.876Z,25.00
2018-10-19T16:39:10.382Z,23.47
2018-10-19T16:41:39.352Z,24.32
2018-10-19T16:44:08.083Z,24.43
2018-10-19T16:46:37.214Z,23.12
2018-10-19T16:49:05.777Z,21.10
2018-10-19T16:51:34.645Z,22.48
2018-10-19T16:54:03.283Z,22.60
2018-10-19T16:56:32.269Z,23.10
2018-10-19T16:59:00.836Z,24.30
2018-10-19T17:01:29.433Z,20.95
2018-10-19T17:03:57.952Z,25.62
2018-10-19T17:06:26.683Z,22.70
2018-10-19T17:08:55.204Z,20.85
2018-10-19T17:11:24.248Z,23.95
2018-10-19T17:13:52.828Z,22.13
2018-10-19T17:16:22.429Z,22.77
2018-10-19T17:18:52.300Z,23.30
2018-10-19T17:21:21.292Z,22.52
2018-10-19T17:23:54.789Z,24.60
2018-10-19T17:26:32.962Z,22.62
2018-10-19T17:29:01.933Z,24.12
2018-10-19T17:31:31.304Z,23.42
2018-10-19T17:34:00.361Z,21.73
2018-10-19T17:36:29.366Z,22.70
2018-10-19T17:38:58.823Z,23.77
2018-10-19T17:41:28.086Z,22.27
2018-10-19T17:43:57.879Z,21.75
2018-10-19T17:46:26.492Z,23.42
2018-10-19T17:48:55.354Z,23.95
2018-10-19T17:51:26.469Z,25.35
2018-10-19T17:53:59.876Z,22.73
2018-10-19T17:56:28.390Z,23.47
2018-10-19T17:58:57.701Z,23.98
2018-10-19T18:01:32.724Z,23.62
2018-10-19T18:04:01.893Z,25.30
2018-10-19T18:06:30.707Z,23.42
2018-10-19T18:08:59.315Z,24.27
2018-10-19T18:11:28.560Z,24.85
2018-10-19T18:13:57.784Z,24.90
2018-10-19T18:16:26.349Z,24.40
2018-10-19T18:18:54.948Z,25.00
2018-10-19T18:21:23.608Z,24.70
2018-10-19T18:23:52.350Z,24.45
2018-10-19T18:26:21.901Z,22.52
2018-10-19T18:28:50.920Z,25.02
2018-10-19T18:31:20.009Z,24.32
2018-10-19T18:33:49.491Z,24.47
2018-10-19T18:36:18.061Z,25.05
2018-10-19T18:38:47.386Z,25.12
2018-10-19T18:41:16.353Z,25.80
2018-10-19T18:43:46.061Z,25.23
2018-10-19T18:46:19.179Z,25.25
2018-10-19T18:48:48.850Z,22.67
2018-10-19T18:51:26.444Z,26.37
2018-10-19T18:54:01.491Z,24.18
2018-10-19T18:56:30.334Z,24.50
2018-10-19T18:58:58.940Z,24.90
2018-10-19T19:01:29.940Z,25.88
2018-10-19T19:03:59.897Z,24.40
2018-10-19T19:06:29.846Z,24.55
2018-10-19T19:08:59.094Z,26.35
2018-10-19T19:11:27.888Z,25.80
2018-10-19T19:13:56.814Z,23.20
2018-10-19T19:16:28.725Z,25.12
2018-10-19T19:19:00.851Z,24.35
2018-10-19T19:21:38.627Z,25.40
2018-10-19T19:25:19.652Z,22.50
2018-10-19T19:27:51.900Z,23.05
2018-10-19T19:30:20.782Z,25.10
2018-10-19T19:32:55.993Z,23.30
2018-10-19T19:35:24.575Z,26.33
2018-10-19T19:37:54.523Z,24.27
2018-10-19T19:41:33.731Z,22.42
2018-10-19T19:44:07.570Z,22.58
2018-10-19T19:49:18.666Z,22.45
2018-10-19T19:51:48.096Z,23.95
2018-10-19T19:54:16.993Z,24.60
2018-10-19T19:56:52.147Z,24.10
2018-10-19T19:59:40.060Z,23.98
2018-10-19T20:05:13.384Z,23.32
2018-10-19T20:07:48.325Z,24.72
2018-10-19T20:10:19.709Z,23.80
2018-10-19T20:13:01.131Z,22.40
2018-10-19T20:15:36.228Z,23.30
2018-10-19T20:18:09.916Z,23.75
2018-10-19T20:20:38.633Z,21.87
2018-10-19T20:23:11.779Z,22.48
2018-10-19T20:25:40.763Z,23.00
2018-10-19T20:28:09.368Z,23.30
2018-10-19T20:30:39.991Z,23.62
2018-10-19T20:33:09.922Z,25.27
2018-10-19T20:35:39.572Z,23.60
2018-10-19T20:38:08.896Z,24.37
2018-10-19T20:40:38.795Z,23.00
2018-10-19T20:43:07.474Z,21.65
2018-10-19T20:45:36.392Z,23.80
2018-10-19T20:48:06.156Z,23.87
2018-10-19T20:50:36.514Z,23.85
2018-10-19T20:53:05.726Z,22.25
2018-10-19T20:55:34.896Z,23.70
2018-10-19T20:58:07.767Z,23.45
2018-10-19T21:00:38.640Z,24.18
2018-10-19T21:03:07.753Z,22.15
2018-10-19T21:05:36.301Z,22.00
2018-10-19T21:08:06.858Z,23.60
2018-10-19T21:10:36.896Z,23.18
2018-10-19T21:13:05.472Z,22.10
2018-10-19T21:15:34.032Z,22.02
2018-10-19T21:18:02.924Z,24.20
2018-10-19T21:20:31.483Z,23.15
2018-10-19T21:23:00.079Z,23.55
2018-10-19T21:25:29.181Z,23.85
2018-10-19T21:27:58.076Z,25.62
2018-10-19T21:30:26.957Z,24.35
2018-10-19T21:32:55.838Z,26.02
2018-10-19T21:35:24.710Z,23.00
2018-10-19T21:37:53.933Z,22.95
2018-10-19T21:40:22.944Z,23.67
2018-10-19T21:42:51.681Z,23.40
2018-10-19T21:45:20.264Z,24.45
2018-10-19T21:47:49.117Z,24.15
2018-10-19T21:50:21.737Z,24.40
2018-10-19T21:52:51.005Z,24.07
2018-10-19T21:55:19.556Z,24.57
2018-10-19T21:57:48.105Z,23.45
2018-10-19T22:00:16.647Z,22.90
2018-10-19T22:02:45.445Z,24.60
2018-10-19T22:05:14.396Z,24.52
2018-10-19T22:07:43.059Z,22.82
2018-10-19T22:10:12.416Z,23.87
2018-10-19T22:12:41.485Z,22.93
2018-10-19T22:15:11.042Z,24.37
2018-10-19T22:17:39.963Z,23.98
2018-10-19T22:20:08.969Z,23.77
2018-10-19T22:22:37.565Z,22.15
2018-10-19T22:25:06.407Z,22.85
2018-10-19T22:27:35.405Z,22.98
2018-10-19T22:30:03.959Z,25.60
2018-10-19T22:32:32.837Z,25.60
2018-10-19T22:35:01.393Z,25.55
2018-10-19T22:37:30.078Z,23.30
2018-10-19T22:39:58.624Z,26.12
2018-10-19T22:42:27.548Z,24.82
2018-10-19T22:44:56.878Z,23.18
2018-10-19T22:47:25.539Z,24.85
2018-10-19T22:49:54.482Z,23.70
2018-10-19T22:52:23.015Z,21.20
2018-10-19T22:54:51.803Z,24.57
2018-10-19T22:57:20.331Z,24.12
2018-10-19T22:59:49.275Z,23.32
2018-10-19T23:02:17.886Z,23.10
2018-10-19T23:04:46.441Z,24.40
2018-10-19T23:07:15.004Z,21.68
2018-10-19T23:09:44.073Z,24.43
2018-10-19T23:12:13.878Z,24.30
2018-10-19T23:14:42.795Z,23.40
2018-10-19T23:17:12.065Z,23.00
2018-10-19T23:19:40.723Z,23.65
2018-10-19T23:22:09.919Z,22.70
2018-10-19T23:24:38.457Z,24.05
2018-10-19T23:27:07.328Z,23.50
2018-10-19T23:29:35.929Z,22.93
2018-10-19T23:32:04.428Z,22.85
2018-10-19T23:34:33.298Z,22.02
2018-10-19T23:37:01.856Z,22.85
2018-10-19T23:39:30.515Z,22.65
2018-10-19T23:41:59.061Z,22.07
2018-10-19T23:44:27.580Z,24.27
2018-10-19T23:46:56.122Z,23.62
2018-10-19T23:49:24.821Z,20.48
2018-10-19T23:51:53.348Z,23.60
2018-10-19T23:54:22.236Z,22.35
2018-10-19T23:56:50.767Z,22.98
2018-10-19T23:59:19.655Z,22.20
